Sumifukumaru No.5 — JD3058 — position and weather

sailwx.info

Track history (hours):
 
Tides and Currents Weather Stations Pressure Air Temp Water Temp Dewpoint Dewpoint Depression Visibility Wind Speed Wind Dir Waves Ship Positions

Sumifukumaru No.5

Last reported at 2017-Jul-28 05:49 UTC. Time now 2017-Jul-28 12:49 UTC.
Position N 34°31' E 135°24'.

Length 75 m; draft 4.4 m.

Type: Cargo ship. MMSI: 431001371.

Date/timePositionNaut miles runAvg speedWind from/ knotsBaromVisibWave heightAir tempDewpointWater temp
2017-Jul-28 05:49N 34°31' E 135°24'2 7.2
2017-Jul-28 05:30N 34°32' E 135°22'0 0.0
2017-Jul-28 01:13N 34°32' E 135°21'0 0.0
2017-Jul-27 23:01N 34°32' E 135°22'0 0.0
2017-Jul-27 22:43N 34°32' E 135°22'0 0.0
2017-Jul-27 21:25N 34°32' E 135°21'0 0.0
2017-Jul-27 20:49N 34°32' E 135°21'0 0.2
2017-Jul-27 20:19N 34°32' E 135°22'2 5.8
2017-Jul-27 20:00N 34°32' E 135°19'611.5
2017-Jul-27 19:30N 34°34' E 135°13'612.1
2017-Jul-27 19:00N 34°35' E 135°05'712.5
2017-Jul-27 18:25N 34°36' E 134°57'  
2017-Jul-21 09:56N 34°12' E 134°51'510.8
2017-Jul-21 09:30N 34°14' E 134°57'611.4
2017-Jul-21 09:00N 34°14' E 135°03'3 6.4
2017-Jul-21 08:30N 34°15' E 135°07'0 0.0
2017-Jul-21 08:00N 34°15' E 135°07'0 0.0
2017-Jul-21 07:27N 34°15' E 135°07'0 0.0
2017-Jul-21 06:48N 34°15' E 135°07'0 0.0
2017-Jul-21 06:30N 34°15' E 135°07'0 0.0
2017-Jul-21 05:57N 34°15' E 135°07'0 0.0
2017-Jul-21 05:27N 34°15' E 135°07'0 0.0
2017-Jul-21 05:00N 34°15' E 135°07'0 0.0
2017-Jul-21 04:27N 34°15' E 135°07'0 0.0
2017-Jul-21 04:00N 34°15' E 135°07'0 0.0
2017-Jul-21 03:24N 34°15' E 135°07'0 0.1
2017-Jul-21 02:57N 34°15' E 135°07'0 0.0
2017-Jul-21 02:30N 34°15' E 135°07'0 0.2
2017-Jul-21 02:00N 34°15' E 135°07'1 1.9
2017-Jul-21 01:30N 34°15' E 135°06'0 0.0
2017-Jul-21 00:47N 34°15' E 135°06'0 0.0
2017-Jul-21 00:29N 34°15' E 135°06'0 0.0
2017-Jul-20 23:59N 34°15' E 135°06'0 0.1
2017-Jul-20 23:30N 34°15' E 135°06'0 0.1
2017-Jul-20 23:00N 34°15' E 135°06'0 0.0
2017-Jul-20 22:26N 34°15' E 135°06'0 0.0
2017-Jul-20 21:56N 34°15' E 135°06'0 0.0
2017-Jul-20 21:29N 34°15' E 135°06'0 0.0
2017-Jul-20 21:00N 34°15' E 135°06'  
Track history (hours):
 
Tides and Currents Weather Stations Pressure Air Temp Water Temp Dewpoint Dewpoint Depression Visibility Wind Speed Wind Dir Waves Ship Positions

Sumifukumaru No.5

Last reported at 2017-Jul-28 05:49 UTC. Time now 2017-Jul-28 12:49 UTC.
Position N 34°31' E 135°24'.

Length 75 m; draft 4.4 m.

Type: Cargo ship. MMSI: 431001371.

Date/timePositionNaut miles runAvg speedWind from/ knotsBaromVisibWave heightAir tempDewpointWater temp
2017-Jul-28 05:49N 34°31' E 135°24'2 7.2
2017-Jul-28 05:30N 34°32' E 135°22'0 0.0
2017-Jul-28 01:13N 34°32' E 135°21'0 0.0
2017-Jul-27 23:01N 34°32' E 135°22'0 0.0
2017-Jul-27 22:43N 34°32' E 135°22'0 0.0
2017-Jul-27 21:25N 34°32' E 135°21'0 0.0
2017-Jul-27 20:49N 34°32' E 135°21'0 0.2
2017-Jul-27 20:19N 34°32' E 135°22'2 5.8
2017-Jul-27 20:00N 34°32' E 135°19'611.5
2017-Jul-27 19:30N 34°34' E 135°13'612.1
2017-Jul-27 19:00N 34°35' E 135°05'712.5
2017-Jul-27 18:25N 34°36' E 134°57'  
2017-Jul-21 09:56N 34°12' E 134°51'510.8
2017-Jul-21 09:30N 34°14' E 134°57'611.4
2017-Jul-21 09:00N 34°14' E 135°03'3 6.4
2017-Jul-21 08:30N 34°15' E 135°07'0 0.0
2017-Jul-21 08:00N 34°15' E 135°07'0 0.0
2017-Jul-21 07:27N 34°15' E 135°07'0 0.0
2017-Jul-21 06:48N 34°15' E 135°07'0 0.0
2017-Jul-21 06:30N 34°15' E 135°07'0 0.0
2017-Jul-21 05:57N 34°15' E 135°07'0 0.0
2017-Jul-21 05:27N 34°15' E 135°07'0 0.0
2017-Jul-21 05:00N 34°15' E 135°07'0 0.0
2017-Jul-21 04:27N 34°15' E 135°07'0 0.0
2017-Jul-21 04:00N 34°15' E 135°07'0 0.0
2017-Jul-21 03:24N 34°15' E 135°07'0 0.1
2017-Jul-21 02:57N 34°15' E 135°07'0 0.0
2017-Jul-21 02:30N 34°15' E 135°07'0 0.2
2017-Jul-21 02:00N 34°15' E 135°07'1 1.9
2017-Jul-21 01:30N 34°15' E 135°06'0 0.0
2017-Jul-21 00:47N 34°15' E 135°06'0 0.0
2017-Jul-21 00:29N 34°15' E 135°06'0 0.0
2017-Jul-20 23:59N 34°15' E 135°06'0 0.1
2017-Jul-20 23:30N 34°15' E 135°06'0 0.1
2017-Jul-20 23:00N 34°15' E 135°06'0 0.0
2017-Jul-20 22:26N 34°15' E 135°06'0 0.0
2017-Jul-20 21:56N 34°15' E 135°06'0 0.0
2017-Jul-20 21:29N 34°15' E 135°06'0 0.0
2017-Jul-20 21:00N 34°15' E 135°06'  

Dump ship's entire track history